createdAt,value
2023-01-29T00:01:57.123Z,11.07
2023-01-29T00:04:24.561Z,10.87
2023-01-29T00:06:51.415Z,11.17
2023-01-29T00:09:18.668Z,11.40
2023-01-29T00:11:45.557Z,11.53
2023-01-29T00:14:12.459Z,11.57
2023-01-29T00:16:39.996Z,11.57
2023-01-29T00:19:07.225Z,11.67
2023-01-29T00:21:34.128Z,10.97
2023-01-29T00:24:01.015Z,11.90
2023-01-29T00:26:28.266Z,10.87
2023-01-29T00:28:57.448Z,11.00
2023-01-29T00:31:25.522Z,10.83
2023-01-29T00:33:53.335Z,10.80
2023-01-29T00:36:21.965Z,10.97
2023-01-29T00:38:58.643Z,10.67
2023-01-29T00:41:48.773Z,11.10
2023-01-29T00:44:34.706Z,10.87
2023-01-29T00:47:02.147Z,10.80
2023-01-29T00:49:30.422Z,11.00
2023-01-29T00:52:36.612Z,11.07
2023-01-29T00:55:05.492Z,11.30
2023-01-29T00:57:33.978Z,11.10
2023-01-29T01:00:01.636Z,11.63
2023-01-29T01:02:47.225Z,11.53
2023-01-29T01:05:18.317Z,11.50
2023-01-29T01:07:50.081Z,11.13
2023-01-29T01:10:23.271Z,11.17
2023-01-29T01:12:59.954Z,10.83
2023-01-29T01:15:31.292Z,11.20
2023-01-29T01:18:00.393Z,11.50
2023-01-29T01:20:29.209Z,11.20
2023-01-29T01:22:56.577Z,11.10
2023-01-29T01:25:24.845Z,11.33
2023-01-29T01:27:56.063Z,11.20
2023-01-29T01:30:24.223Z,11.13
2023-01-29T01:32:51.331Z,11.40
2023-01-29T01:35:18.862Z,11.53
2023-01-29T01:37:45.682Z,11.20
2023-01-29T01:40:20.510Z,11.67
2023-01-29T01:42:52.577Z,11.23
2023-01-29T01:45:25.921Z,10.97
2023-01-29T01:47:57.550Z,10.70
2023-01-29T01:50:35.951Z,11.03
2023-01-29T01:53:16.968Z,11.00
2023-01-29T01:55:52.641Z,10.90
2023-01-29T01:58:34.787Z,11.27
2023-01-29T02:01:03.770Z,11.00
2023-01-29T02:03:53.181Z,10.90
2023-01-29T02:06:38.798Z,11.00
2023-01-29T02:09:35.671Z,10.70
2023-01-29T02:12:12.677Z,11.17
2023-01-29T02:14:41.454Z,11.50
2023-01-29T02:17:11.872Z,11.33
2023-01-29T02:19:38.720Z,10.80
2023-01-29T02:22:29.270Z,11.13
2023-01-29T02:25:21.448Z,11.00
2023-01-29T02:28:24.326Z,11.30
2023-01-29T02:31:24.347Z,11.13
2023-01-29T02:35:04.543Z,11.33
2023-01-29T02:37:59.085Z,11.30
2023-01-29T02:40:45.612Z,11.40
2023-01-29T02:43:25.459Z,11.20
2023-01-29T02:46:18.994Z,10.73
2023-01-29T02:49:02.035Z,10.90
2023-01-29T02:51:35.334Z,10.90
2023-01-29T02:54:02.187Z,10.70
2023-01-29T02:56:54.222Z,11.00
2023-01-29T02:59:40.190Z,11.03
2023-01-29T03:02:16.524Z,10.80
2023-01-29T03:04:55.682Z,10.70
2023-01-29T03:07:46.002Z,10.80
2023-01-29T03:10:33.497Z,10.83
2023-01-29T03:13:13.297Z,10.83
2023-01-29T03:15:54.975Z,10.70
2023-01-29T03:18:45.884Z,10.60
2023-01-29T03:21:38.595Z,10.87
2023-01-29T03:24:26.816Z,10.70
2023-01-29T03:27:13.038Z,10.63
2023-01-29T03:30:04.443Z,10.80
2023-01-29T03:32:49.713Z,10.87
2023-01-29T03:35:36.742Z,10.97
2023-01-29T03:38:07.496Z,11.13
2023-01-29T03:40:43.852Z,10.80
2023-01-29T03:43:36.997Z,11.17
2023-01-29T03:46:11.506Z,11.13
2023-01-29T03:48:45.991Z,10.90
2023-01-29T03:51:35.114Z,11.13
2023-01-29T03:54:10.063Z,11.40
2023-01-29T03:57:15.496Z,11.00
2023-01-29T04:00:02.072Z,10.63
2023-01-29T04:02:59.492Z,10.30
2023-01-29T04:05:32.237Z,10.53
2023-01-29T04:08:27.833Z,11.00
2023-01-29T04:11:01.651Z,10.93
2023-01-29T04:13:33.817Z,11.30
2023-01-29T04:16:04.342Z,11.13
2023-01-29T04:18:59.038Z,10.87
2023-01-29T04:21:32.040Z,10.77
2023-01-29T04:23:59.390Z,10.77
2023-01-29T04:26:50.379Z,10.97
2023-01-29T04:30:02.806Z,11.43
2023-01-29T04:32:48.103Z,11.10
2023-01-29T04:35:28.216Z,10.77
2023-01-29T04:38:05.451Z,10.90
2023-01-29T04:41:03.335Z,10.70
2023-01-29T04:43:58.289Z,10.60
2023-01-29T04:46:41.966Z,10.57
2023-01-29T04:50:00.914Z,10.43
2023-01-29T04:52:45.545Z,10.60
2023-01-29T04:55:18.225Z,10.53
2023-01-29T04:57:57.965Z,11.00
2023-01-29T05:00:29.828Z,11.07
2023-01-29T05:02:57.502Z,10.63
2023-01-29T05:05:24.321Z,10.77
2023-01-29T05:07:51.583Z,10.63
2023-01-29T05:10:21.434Z,10.40
2023-01-29T05:12:54.108Z,10.87
2023-01-29T05:15:26.558Z,11.00
2023-01-29T05:17:53.933Z,10.87
2023-01-29T05:20:21.091Z,11.23
2023-01-29T05:22:49.283Z,11.17
2023-01-29T05:25:37.111Z,11.23
2023-01-29T05:28:04.053Z,11.17
2023-01-29T05:30:32.890Z,10.63
2023-01-29T05:33:00.414Z,11.00
2023-01-29T05:35:28.475Z,10.87
2023-01-29T05:37:57.096Z,11.23
2023-01-29T05:40:25.068Z,11.00
2023-01-29T05:42:52.225Z,11.47
2023-01-29T05:45:19.571Z,11.50
2023-01-29T05:47:47.272Z,11.00
2023-01-29T05:50:15.357Z,11.00
2023-01-29T05:52:42.702Z,11.73
2023-01-29T05:55:10.540Z,12.50
2023-01-29T05:57:38.094Z,12.40
2023-01-29T06:00:05.849Z,12.10
2023-01-29T06:02:39.585Z,12.27
2023-01-29T06:05:07.110Z,12.13
2023-01-29T06:07:34.017Z,12.13
2023-01-29T06:10:00.843Z,12.60
2023-01-29T06:12:28.191Z,12.20
2023-01-29T06:14:55.134Z,12.40
2023-01-29T06:17:21.941Z,11.90
2023-01-29T06:19:48.882Z,12.40
2023-01-29T06:22:15.655Z,12.00
2023-01-29T06:24:42.563Z,12.20
2023-01-29T06:27:09.371Z,12.40
2023-01-29T06:29:36.613Z,12.83
2023-01-29T06:32:03.589Z,13.00
2023-01-29T06:34:30.569Z,12.50
2023-01-29T06:36:57.421Z,12.87
2023-01-29T06:39:24.289Z,13.20
2023-01-29T06:41:51.147Z,12.70
2023-01-29T06:44:18.088Z,12.50
2023-01-29T06:46:44.897Z,12.57
2023-01-29T06:49:11.814Z,12.73
2023-01-29T06:51:38.748Z,12.73
2023-01-29T06:54:06.511Z,12.90
2023-01-29T06:56:33.362Z,12.67
2023-01-29T06:59:00.301Z,13.23
2023-01-29T07:01:35.792Z,12.83
2023-01-29T07:04:03.853Z,12.60
2023-01-29T07:06:31.746Z,12.67
2023-01-29T07:08:58.639Z,12.47
2023-01-29T07:11:25.585Z,12.83
2023-01-29T07:13:52.521Z,13.00
2023-01-29T07:16:19.508Z,12.80
2023-01-29T07:18:46.610Z,12.87
2023-01-29T07:21:13.483Z,13.03
2023-01-29T07:23:40.604Z,12.70
2023-01-29T07:26:07.541Z,12.67
2023-01-29T07:28:38.278Z,12.33
2023-01-29T07:31:06.239Z,12.10
2023-01-29T07:33:33.541Z,12.20
2023-01-29T07:36:00.381Z,12.43
2023-01-29T07:38:27.219Z,11.93
2023-01-29T07:40:54.435Z,12.10
2023-01-29T07:43:21.460Z,12.07
2023-01-29T07:45:48.377Z,12.57
2023-01-29T07:48:15.225Z,12.93
2023-01-29T07:50:42.242Z,12.43
2023-01-29T07:53:14.096Z,12.50
2023-01-29T07:55:43.784Z,11.80
2023-01-29T07:58:10.674Z,12.33
2023-01-29T08:00:37.922Z,12.13
2023-01-29T08:03:06.326Z,12.17
2023-01-29T08:05:33.549Z,12.30
2023-01-29T08:08:06.898Z,12.00
2023-01-29T08:10:38.971Z,12.07
2023-01-29T08:13:06.951Z,12.60
2023-01-29T08:15:36.043Z,12.50
2023-01-29T08:18:05.125Z,12.13
2023-01-29T08:20:32.078Z,12.17
2023-01-29T08:23:14.416Z,12.20
2023-01-29T08:25:42.016Z,12.70
2023-01-29T08:28:09.932Z,12.43
2023-01-29T08:30:36.908Z,12.27
2023-01-29T08:33:04.507Z,11.80
2023-01-29T08:35:31.656Z,12.40
2023-01-29T08:38:00.988Z,12.07
2023-01-29T08:40:31.912Z,12.57
2023-01-29T08:43:02.083Z,12.23
2023-01-29T08:45:30.466Z,11.77
2023-01-29T08:47:57.560Z,11.90
2023-01-29T08:50:24.703Z,12.03
2023-01-29T08:52:51.744Z,12.27
2023-01-29T08:55:19.004Z,11.40
2023-01-29T08:57:46.049Z,11.70
2023-01-29T09:00:13.651Z,12.17
2023-01-29T09:02:40.623Z,11.77
2023-01-29T09:05:08.127Z,12.17
2023-01-29T09:07:35.000Z,11.57
2023-01-29T09:10:02.452Z,11.03
2023-01-29T09:12:30.028Z,11.20
2023-01-29T09:14:56.981Z,11.60
2023-01-29T09:17:23.920Z,11.63
2023-01-29T09:19:53.086Z,11.53
2023-01-29T09:22:20.613Z,11.50
2023-01-29T09:24:47.670Z,11.27
2023-01-29T09:27:14.542Z,11.00
2023-01-29T09:29:41.402Z,11.20
2023-01-29T09:32:08.261Z,11.53
2023-01-29T09:34:35.538Z,11.80
2023-01-29T09:37:02.417Z,11.57
2023-01-29T09:39:29.712Z,11.60
2023-01-29T09:42:10.668Z,11.00
2023-01-29T09:44:56.183Z,10.63
2023-01-29T09:47:26.699Z,9.93
2023-01-29T09:50:00.176Z,10.57
2023-01-29T09:52:32.271Z,10.50
2023-01-29T09:55:24.685Z,10.57
2023-01-29T09:58:06.482Z,10.97
2023-01-29T10:01:12.342Z,10.13
2023-01-29T10:04:12.065Z,10.13
2023-01-29T10:06:47.735Z,10.47
2023-01-29T10:09:17.439Z,10.33
2023-01-29T10:11:59.654Z,10.83
2023-01-29T10:14:39.828Z,10.93
2023-01-29T10:17:34.129Z,10.83
2023-01-29T10:20:25.608Z,10.90
2023-01-29T10:23:15.586Z,10.70
2023-01-29T10:25:45.160Z,11.17
2023-01-29T10:28:28.229Z,10.70
2023-01-29T10:31:05.089Z,10.70
2023-01-29T10:34:02.520Z,10.83
2023-01-29T10:36:38.567Z,10.83
2023-01-29T10:39:05.503Z,11.17
2023-01-29T10:41:53.083Z,10.87
2023-01-29T10:44:49.967Z,10.90
2023-01-29T10:47:50.542Z,10.60
2023-01-29T10:50:49.296Z,10.83
2023-01-29T10:53:24.924Z,10.80
2023-01-29T10:56:22.815Z,10.97
2023-01-29T10:58:59.554Z,10.47
2023-01-29T11:01:26.947Z,10.90
2023-01-29T11:04:04.354Z,11.00
2023-01-29T11:06:34.121Z,10.73
2023-01-29T11:09:25.636Z,10.93
2023-01-29T11:11:54.149Z,10.37
2023-01-29T11:14:54.439Z,10.90
2023-01-29T11:17:26.224Z,10.43
2023-01-29T11:19:57.396Z,10.90
2023-01-29T11:22:25.815Z,10.63
2023-01-29T11:25:18.024Z,10.43
2023-01-29T11:27:48.069Z,9.97
2023-01-29T11:30:27.365Z,9.73
2023-01-29T11:33:07.928Z,9.87
2023-01-29T11:35:36.599Z,9.70
2023-01-29T11:38:16.620Z,10.17
2023-01-29T11:40:44.070Z,10.20
2023-01-29T11:43:31.133Z,10.07
2023-01-29T11:46:05.275Z,9.63
2023-01-29T11:48:59.065Z,9.70
2023-01-29T11:51:29.881Z,9.77
2023-01-29T11:53:59.465Z,9.90
2023-01-29T11:56:43.708Z,10.20
2023-01-29T11:59:44.162Z,10.47
2023-01-29T12:02:35.718Z,10.57
2023-01-29T12:05:13.511Z,10.40
2023-01-29T12:07:43.705Z,10.43
2023-01-29T12:10:30.457Z,9.97
2023-01-29T12:13:20.128Z,10.10
2023-01-29T12:15:48.869Z,10.30
2023-01-29T12:18:30.090Z,10.77
2023-01-29T12:21:03.998Z,10.83
2023-01-29T12:23:46.867Z,10.50
2023-01-29T12:26:24.670Z,10.50
2023-01-29T12:29:33.774Z,10.60
2023-01-29T12:32:20.118Z,10.30
2023-01-29T12:35:10.372Z,11.00
2023-01-29T12:38:02.502Z,10.53
2023-01-29T12:40:58.384Z,11.20
2023-01-29T12:43:36.053Z,10.97
2023-01-29T12:46:06.581Z,10.70
2023-01-29T12:48:38.382Z,11.07
2023-01-29T12:51:10.779Z,11.20
2023-01-29T12:53:43.777Z,11.60
2023-01-29T12:56:22.766Z,11.37
2023-01-29T12:58:53.331Z,10.93
2023-01-29T13:01:36.880Z,11.97
2023-01-29T13:04:10.181Z,11.73
2023-01-29T13:06:44.852Z,12.10
2023-01-29T13:09:22.057Z,12.30
2023-01-29T13:11:56.557Z,12.10
2023-01-29T13:14:28.986Z,12.03
2023-01-29T13:17:10.115Z,11.77
2023-01-29T13:19:42.469Z,12.13
2023-01-29T13:22:19.662Z,11.87
2023-01-29T13:25:02.336Z,11.87
2023-01-29T13:27:33.018Z,11.73
2023-01-29T13:30:00.354Z,12.20
2023-01-29T13:32:29.870Z,12.00
2023-01-29T13:35:14.179Z,11.23
2023-01-29T13:37:53.617Z,11.70
2023-01-29T13:40:29.714Z,12.37
2023-01-29T13:43:00.691Z,12.17
2023-01-29T13:45:45.229Z,11.87
2023-01-29T13:48:28.654Z,11.97
2023-01-29T13:50:57.651Z,12.30
2023-01-29T13:53:27.649Z,12.53
2023-01-29T13:55:54.795Z,11.73
2023-01-29T13:58:33.901Z,11.80
2023-01-29T14:01:03.862Z,11.90
2023-01-29T14:03:45.112Z,12.50
2023-01-29T14:06:40.531Z,12.27
2023-01-29T14:09:30.251Z,12.13
2023-01-29T14:11:57.258Z,12.40
2023-01-29T14:14:49.167Z,12.00
2023-01-29T14:17:18.321Z,12.67
2023-01-29T14:19:53.729Z,12.80
2023-01-29T14:22:27.513Z,12.53
2023-01-29T14:24:56.894Z,12.73
2023-01-29T14:27:27.886Z,12.80
2023-01-29T14:30:09.938Z,12.77
2023-01-29T14:32:39.992Z,12.80
2023-01-29T14:35:20.678Z,12.63
2023-01-29T14:37:57.818Z,13.13
2023-01-29T14:40:28.068Z,12.77
2023-01-29T14:43:08.155Z,12.77
2023-01-29T14:45:36.082Z,12.60
2023-01-29T14:48:04.880Z,12.53
2023-01-29T14:50:35.050Z,12.60
2023-01-29T14:53:19.977Z,12.37
2023-01-29T14:56:01.661Z,12.33
2023-01-29T14:58:50.229Z,12.40
2023-01-29T15:01:37.408Z,12.27
2023-01-29T15:04:05.851Z,12.20
2023-01-29T15:06:42.934Z,12.60
2023-01-29T15:09:55.502Z,12.37
2023-01-29T15:12:48.488Z,12.77
2023-01-29T15:15:37.708Z,12.80
2023-01-29T15:18:16.383Z,12.80
2023-01-29T15:20:44.267Z,12.47
2023-01-29T15:23:31.778Z,12.67
2023-01-29T15:26:04.552Z,12.53
2023-01-29T15:28:33.467Z,12.80
2023-01-29T15:31:07.846Z,12.20
2023-01-29T15:33:38.651Z,12.67
2023-01-29T15:36:07.706Z,13.13
2023-01-29T15:38:35.436Z,13.30
2023-01-29T15:41:19.871Z,13.40
2023-01-29T15:43:50.475Z,13.30
2023-01-29T15:46:23.023Z,13.00
2023-01-29T15:48:51.105Z,13.07
2023-01-29T15:51:23.977Z,13.27
2023-01-29T15:53:57.137Z,12.90
2023-01-29T15:56:28.268Z,13.03
2023-01-29T15:58:58.993Z,13.40
2023-01-29T16:01:29.939Z,13.63
2023-01-29T16:04:02.157Z,13.40
2023-01-29T16:06:40.627Z,13.73
2023-01-29T16:09:08.337Z,13.33
2023-01-29T16:11:36.119Z,13.07
2023-01-29T16:14:04.863Z,13.10
2023-01-29T16:16:31.751Z,13.43
2023-01-29T16:19:00.771Z,13.70
2023-01-29T16:21:38.625Z,13.27
2023-01-29T16:24:11.942Z,13.50
2023-01-29T16:26:44.875Z,12.90
2023-01-29T16:29:14.813Z,13.10
2023-01-29T16:31:43.743Z,12.90
2023-01-29T16:34:35.411Z,13.00
2023-01-29T16:37:25.022Z,12.77
2023-01-29T16:39:52.875Z,12.80
2023-01-29T16:42:23.087Z,12.53
2023-01-29T16:44:54.726Z,12.57
2023-01-29T16:47:29.738Z,12.77
2023-01-29T16:50:18.358Z,12.80
2023-01-29T16:53:11.454Z,12.17
2023-01-29T16:55:42.081Z,12.50
2023-01-29T16:58:21.327Z,12.70
2023-01-29T17:00:56.906Z,12.70
2023-01-29T17:03:27.040Z,12.90
2023-01-29T17:05:54.989Z,13.07
2023-01-29T17:08:27.724Z,12.40
2023-01-29T17:10:54.883Z,11.83
2023-01-29T17:13:45.617Z,11.83
2023-01-29T17:16:35.169Z,11.73
2023-01-29T17:19:06.512Z,11.67
2023-01-29T17:21:33.409Z,12.23
2023-01-29T17:24:00.187Z,12.37
2023-01-29T17:26:27.269Z,12.00
2023-01-29T17:28:54.999Z,11.63
2023-01-29T17:31:22.056Z,12.13
2023-01-29T17:33:49.148Z,11.87
2023-01-29T17:36:17.883Z,12.23
2023-01-29T17:38:45.755Z,13.90
2023-01-29T17:41:27.036Z,11.97
2023-01-29T17:43:54.085Z,12.03
2023-01-29T17:46:21.282Z,11.97
2023-01-29T17:48:49.446Z,11.93
2023-01-29T17:51:18.157Z,11.73
2023-01-29T17:53:46.823Z,11.47
2023-01-29T17:56:20.399Z,11.67
2023-01-29T17:58:47.356Z,11.90
2023-01-29T18:01:14.466Z,11.87
2023-01-29T18:03:42.026Z,12.23
2023-01-29T18:06:10.049Z,11.80
2023-01-29T18:08:39.235Z,11.93
2023-01-29T18:11:06.375Z,12.07
2023-01-29T18:13:36.059Z,12.07
2023-01-29T18:16:03.293Z,11.80
2023-01-29T18:18:30.301Z,11.40
2023-01-29T18:20:57.104Z,11.97
2023-01-29T18:23:24.152Z,12.37
2023-01-29T18:25:52.754Z,11.83
2023-01-29T18:28:19.677Z,12.20
2023-01-29T18:30:47.541Z,11.90
2023-01-29T18:33:15.957Z,12.27
2023-01-29T18:35:50.402Z,11.77
2023-01-29T18:38:17.744Z,12.43
2023-01-29T18:40:44.553Z,12.50
2023-01-29T18:43:11.403Z,12.40
2023-01-29T18:45:38.334Z,11.80
2023-01-29T18:48:05.701Z,12.30
2023-01-29T18:50:33.047Z,12.07
2023-01-29T18:52:59.977Z,11.90
2023-01-29T18:55:27.040Z,11.53
2023-01-29T18:58:26.676Z,12.00
2023-01-29T19:00:41.738Z,11.70
2023-01-29T19:03:08.569Z,11.20
2023-01-29T19:05:35.608Z,11.70
2023-01-29T19:08:02.481Z,11.90
2023-01-29T19:10:29.409Z,11.87
2023-01-29T19:12:56.552Z,11.97
2023-01-29T19:15:23.537Z,11.63
2023-01-29T19:17:51.066Z,12.10
2023-01-29T19:20:18.274Z,12.17
2023-01-29T19:22:45.184Z,11.43
2023-01-29T19:25:12.763Z,11.67
2023-01-29T19:27:39.933Z,10.87
2023-01-29T19:30:07.630Z,10.70
2023-01-29T19:32:34.675Z,11.13
2023-01-29T19:35:01.897Z,11.00
2023-01-29T19:37:30.561Z,10.90
2023-01-29T19:39:57.785Z,10.83
2023-01-29T19:42:24.687Z,10.90
2023-01-29T19:44:52.382Z,10.97
2023-01-29T19:47:19.449Z,11.17
2023-01-29T19:49:46.503Z,11.47
2023-01-29T19:52:49.892Z,11.20
2023-01-29T19:55:18.211Z,11.40
2023-01-29T19:57:45.468Z,10.60
2023-01-29T20:00:14.886Z,11.00
2023-01-29T20:02:41.770Z,10.47
2023-01-29T20:05:12.071Z,10.30
2023-01-29T20:07:40.229Z,11.40
2023-01-29T20:10:09.739Z,11.37
2023-01-29T20:12:36.890Z,11.10
2023-01-29T20:15:04.559Z,11.43
2023-01-29T20:17:31.667Z,11.57
2023-01-29T20:19:58.422Z,11.40
2023-01-29T20:22:26.827Z,11.23
2023-01-29T20:24:54.247Z,11.33
2023-01-29T20:27:21.222Z,10.80
2023-01-29T20:29:48.028Z,10.77
2023-01-29T20:32:15.017Z,10.80
2023-01-29T20:34:41.853Z,11.03
2023-01-29T20:37:08.759Z,11.50
2023-01-29T20:39:35.617Z,10.43
2023-01-29T20:42:02.780Z,10.90
2023-01-29T20:44:29.596Z,11.43
2023-01-29T20:47:01.721Z,11.10
2023-01-29T20:49:29.116Z,10.90
2023-01-29T20:51:56.433Z,11.23
2023-01-29T20:54:23.474Z,11.57
2023-01-29T20:56:50.522Z,10.87
2023-01-29T20:59:17.519Z,10.20
2023-01-29T21:01:45.329Z,10.70
2023-01-29T21:04:12.484Z,11.00
2023-01-29T21:06:39.412Z,11.03
2023-01-29T21:09:06.429Z,11.30
2023-01-29T21:11:33.722Z,11.30
2023-01-29T21:14:01.986Z,11.60
2023-01-29T21:16:29.031Z,11.57
2023-01-29T21:19:00.247Z,10.97
2023-01-29T21:21:27.628Z,11.47
2023-01-29T21:23:54.643Z,11.10
2023-01-29T21:26:23.289Z,11.67
2023-01-29T21:28:50.333Z,11.90
2023-01-29T21:31:17.769Z,11.53
2023-01-29T21:33:44.844Z,11.43
2023-01-29T21:36:12.309Z,11.60
2023-01-29T21:38:39.816Z,11.63
2023-01-29T21:41:09.679Z,11.50
2023-01-29T21:43:37.449Z,11.77
2023-01-29T21:46:16.370Z,11.90
2023-01-29T21:48:43.538Z,12.20
2023-01-29T21:51:10.407Z,12.17
2023-01-29T21:53:37.351Z,12.10
2023-01-29T21:56:05.441Z,12.17
2023-01-29T21:58:32.953Z,11.80
2023-01-29T22:01:18.240Z,12.33
2023-01-29T22:03:47.616Z,12.33
2023-01-29T22:06:15.049Z,11.80
2023-01-29T22:08:41.937Z,12.43
2023-01-29T22:11:09.287Z,12.93
2023-01-29T22:13:36.596Z,12.20
2023-01-29T22:16:04.721Z,12.80
2023-01-29T22:18:32.004Z,12.87
2023-01-29T22:20:59.636Z,12.70
2023-01-29T22:23:27.297Z,12.50
2023-01-29T22:25:54.177Z,13.07
2023-01-29T22:28:21.799Z,12.50
2023-01-29T22:30:48.771Z,12.40
2023-01-29T22:33:16.015Z,12.40
2023-01-29T22:35:42.851Z,12.20
2023-01-29T22:38:09.794Z,12.43
2023-01-29T22:40:36.599Z,12.20
2023-01-29T22:43:03.581Z,12.47
2023-01-29T22:45:30.463Z,11.97
2023-01-29T22:47:57.352Z,12.20
2023-01-29T22:50:24.217Z,12.00
2023-01-29T22:52:53.793Z,12.07
2023-01-29T22:55:21.258Z,12.30
2023-01-29T22:57:51.446Z,12.07
2023-01-29T23:00:19.158Z,12.23
2023-01-29T23:02:50.065Z,12.00
2023-01-29T23:05:18.417Z,12.33
2023-01-29T23:07:45.591Z,12.47
2023-01-29T23:10:16.414Z,12.37
2023-01-29T23:12:43.452Z,12.40
2023-01-29T23:15:10.347Z,12.47
2023-01-29T23:17:39.657Z,12.00
2023-01-29T23:20:07.214Z,12.50
2023-01-29T23:22:34.252Z,12.13
2023-01-29T23:25:02.838Z,11.90
2023-01-29T23:27:29.694Z,11.73
2023-01-29T23:29:56.570Z,11.60
2023-01-29T23:32:23.389Z,11.73
2023-01-29T23:34:50.300Z,12.13
2023-01-29T23:37:17.185Z,11.90
2023-01-29T23:39:44.131Z,12.00
2023-01-29T23:42:11.051Z,11.83
2023-01-29T23:44:38.022Z,12.20
2023-01-29T23:47:04.915Z,12.30
2023-01-29T23:49:31.970Z,11.90
2023-01-29T23:51:58.825Z,12.30
2023-01-29T23:54:25.750Z,12.23
2023-01-29T23:56:52.606Z,12.03
2023-01-29T23:59:19.611Z,12.03
